Apiliotis — SYVY — position and weather

sailwx.info

Track history (hours):
 
Tides and Currents Weather Stations Pressure Air Temp Water Temp Dewpoint Dewpoint Depression Visibility Wind Speed Wind Dir Waves Ship Positions

Apiliotis

Last reported at 2017-Mar-23 04:11 UTC. Time now 2017-Mar-24 06:14 UTC.
Position N 37°21' E 024°59'.

Length 79 m; draft 4.5 m.

Type: Ship. MMSI: 240438000.

Date/timePositionNaut miles runAvg speedWind from/ knotsBaromVisibWave heightAir tempDewpointWater temp
2017-Mar-23 04:11N 37°21' E 024°59'710.8
2017-Mar-23 03:33N 37°16' E 024°54'61 3.2
2017-Mar-22 08:26N 37°39' E 023°43'1011.9
2017-Mar-22 07:34N 37°48' E 023°36'1211.6
2017-Mar-22 06:34N 37°51' E 023°22'14 0.9
2017-Mar-21 14:27N 37°54' E 023°04'0 0.0
2017-Mar-21 12:33N 37°54' E 023°04'0 0.0
2017-Mar-21 11:33N 37°54' E 023°04'0 0.0
2017-Mar-21 10:33N 37°54' E 023°04'0 0.0
2017-Mar-21 09:33N 37°54' E 023°05'0 0.5
2017-Mar-21 08:33N 37°54' E 023°05'1010.5
2017-Mar-21 07:33N 37°56' E 023°18'9 9.0
2017-Mar-21 06:33N 38°01' E 023°28'3 2.8
2017-Mar-21 05:31N 38°02' E 023°32'0 0.0
2017-Mar-21 04:31N 38°02' E 023°32'0 0.0
2017-Mar-21 03:31N 38°02' E 023°32'0 0.0
2017-Mar-21 02:31N 38°02' E 023°32'0 0.0
2017-Mar-21 01:31N 38°02' E 023°32'0 0.0
2017-Mar-21 00:31N 38°02' E 023°32'0 0.0
2017-Mar-20 23:31N 38°02' E 023°32'0 0.0
2017-Mar-20 22:31N 38°02' E 023°32'0 0.0
2017-Mar-20 21:31N 38°02' E 023°32'0 0.0
2017-Mar-20 20:31N 38°02' E 023°32'0 0.1
2017-Mar-20 19:31N 38°02' E 023°32'0 0.0
2017-Mar-20 18:31N 38°02' E 023°32'0 0.0
2017-Mar-20 17:31N 38°02' E 023°32'0 0.0
2017-Mar-20 16:31N 38°02' E 023°32'0 0.0
2017-Mar-20 15:31N 38°02' E 023°32'0 0.0
2017-Mar-20 14:31N 38°02' E 023°32'0 0.0
2017-Mar-20 13:31N 38°02' E 023°32'0 0.0
2017-Mar-20 12:31N 38°02' E 023°32'0 0.0
2017-Mar-20 11:31N 38°02' E 023°32'0 0.0
2017-Mar-20 10:28N 38°02' E 023°32'0 0.0
2017-Mar-20 09:31N 38°02' E 023°32'0 0.0
2017-Mar-20 08:31N 38°02' E 023°32'0 0.0
2017-Mar-20 07:33N 38°02' E 023°32'0 0.0
2017-Mar-20 06:31N 38°02' E 023°32'0 0.0
2017-Mar-20 05:33N 38°02' E 023°32'0 0.0
2017-Mar-20 04:31N 38°02' E 023°32'0 0.0
2017-Mar-20 03:31N 38°02' E 023°32'0 0.0
2017-Mar-20 02:31N 38°02' E 023°32'0 0.0
2017-Mar-20 01:31N 38°02' E 023°32'0 0.0
2017-Mar-20 00:31N 38°02' E 023°32'0 0.0
2017-Mar-19 23:31N 38°02' E 023°32'0 0.0
2017-Mar-19 22:31N 38°02' E 023°32'0 0.0
2017-Mar-19 21:28N 38°02' E 023°32'0 0.0
2017-Mar-19 20:31N 38°02' E 023°32'0 0.0
2017-Mar-19 19:31N 38°02' E 023°32'0 0.0
2017-Mar-19 18:31N 38°02' E 023°32'0 0.1
2017-Mar-19 17:31N 38°02' E 023°32'0 0.0
2017-Mar-19 16:31N 38°02' E 023°32'0 0.0
2017-Mar-19 15:31N 38°02' E 023°32'0 0.0
2017-Mar-19 14:31N 38°02' E 023°32'0 0.0
2017-Mar-19 13:31N 38°02' E 023°32'0 0.0
2017-Mar-19 12:31N 38°02' E 023°32'0 0.0
2017-Mar-19 11:31N 38°02' E 023°32'0 0.0
2017-Mar-19 10:31N 38°02' E 023°32'0 0.0
2017-Mar-19 09:31N 38°02' E 023°32'0 0.0
2017-Mar-19 08:31N 38°02' E 023°32'0 0.1
2017-Mar-19 07:31N 38°02' E 023°32'0 0.1
2017-Mar-19 06:31N 38°02' E 023°32'0 0.1
2017-Mar-19 05:31N 38°02' E 023°32'0 0.1
2017-Mar-19 04:31N 38°02' E 023°32'0 0.0
2017-Mar-19 03:28N 38°02' E 023°32'0 0.0
2017-Mar-19 02:31N 38°02' E 023°32'0 0.0
2017-Mar-19 01:31N 38°02' E 023°32'0 0.0
2017-Mar-19 00:31N 38°02' E 023°32'0 0.0
2017-Mar-18 23:31N 38°02' E 023°32'0 0.0
2017-Mar-18 22:31N 38°02' E 023°32'0 0.0
2017-Mar-18 21:31N 38°02' E 023°32'0 0.0
2017-Mar-18 20:31N 38°02' E 023°32'0 0.0
2017-Mar-18 19:31N 38°02' E 023°32'0 0.1
2017-Mar-18 18:31N 38°02' E 023°32'0 0.0
2017-Mar-18 17:31N 38°02' E 023°32'0 0.0
2017-Mar-18 16:31N 38°02' E 023°32'0 0.0
2017-Mar-18 15:31N 38°02' E 023°32'0 0.0
2017-Mar-18 14:31N 38°02' E 023°32'0 0.0
2017-Mar-18 13:31N 38°02' E 023°32'0 0.0
2017-Mar-18 12:31N 38°02' E 023°32'0 0.0
2017-Mar-18 11:31N 38°02' E 023°32'0 0.0
2017-Mar-18 10:31N 38°02' E 023°32'0 0.1
2017-Mar-18 09:31N 38°02' E 023°32'0 0.0
2017-Mar-18 08:31N 38°02' E 023°32'0 0.0
2017-Mar-18 07:31N 38°02' E 023°32'0 0.0
2017-Mar-18 06:31N 38°02' E 023°32'0 0.0
2017-Mar-18 05:31N 38°01' E 023°32'0 0.0
2017-Mar-18 04:31N 38°01' E 023°32'0 0.0
2017-Mar-18 03:28N 38°01' E 023°32'0 0.0
2017-Mar-18 02:31N 38°01' E 023°32'0 0.0
2017-Mar-18 01:31N 38°01' E 023°32'0 0.0
2017-Mar-18 00:31N 38°01' E 023°32'0 0.0
2017-Mar-17 23:31N 38°01' E 023°32'0 0.0
2017-Mar-17 22:31N 38°02' E 023°32'0 0.0
2017-Mar-17 21:31N 38°02' E 023°32'0 0.0
2017-Mar-17 20:31N 38°02' E 023°32'0 0.0
2017-Mar-17 19:31N 38°02' E 023°32'0 0.0
2017-Mar-17 18:31N 38°02' E 023°32'0 0.0
2017-Mar-17 17:31N 38°02' E 023°32'0 0.0
2017-Mar-17 16:31N 38°02' E 023°32'0 0.0
2017-Mar-17 15:31N 38°01' E 023°32'0 0.0
2017-Mar-17 14:31N 38°01' E 023°32'0 0.0
2017-Mar-17 13:31N 38°01' E 023°32'0 0.0
2017-Mar-17 12:31N 38°01' E 023°32'0 0.0
2017-Mar-17 11:25N 38°01' E 023°32'0 0.0
2017-Mar-17 10:31N 38°01' E 023°32'0 0.1
2017-Mar-17 09:34N 38°02' E 023°32'0 0.0
2017-Mar-17 08:33N 38°02' E 023°32'0 0.0
2017-Mar-17 07:33N 38°02' E 023°32'0 0.0
2017-Mar-17 06:33N 38°02' E 023°32'3 3.5
2017-Mar-17 05:33N 37°58' E 023°33'7 7.0
2017-Mar-17 04:33N 37°52' E 023°38'1110.7
2017-Mar-17 03:33N 37°43' E 023°44'  
2017-Mar-14 14:32N 39°32' E 024°05'  
Track history (hours):
 
Tides and Currents Weather Stations Pressure Air Temp Water Temp Dewpoint Dewpoint Depression Visibility Wind Speed Wind Dir Waves Ship Positions

Apiliotis

Last reported at 2017-Mar-23 04:11 UTC. Time now 2017-Mar-24 06:14 UTC.
Position N 37°21' E 024°59'.

Length 79 m; draft 4.5 m.

Type: Ship. MMSI: 240438000.

Date/timePositionNaut miles runAvg speedWind from/ knotsBaromVisibWave heightAir tempDewpointWater temp
2017-Mar-23 04:11N 37°21' E 024°59'710.8
2017-Mar-23 03:33N 37°16' E 024°54'61 3.2
2017-Mar-22 08:26N 37°39' E 023°43'1011.9
2017-Mar-22 07:34N 37°48' E 023°36'1211.6
2017-Mar-22 06:34N 37°51' E 023°22'14 0.9
2017-Mar-21 14:27N 37°54' E 023°04'0 0.0
2017-Mar-21 12:33N 37°54' E 023°04'0 0.0
2017-Mar-21 11:33N 37°54' E 023°04'0 0.0
2017-Mar-21 10:33N 37°54' E 023°04'0 0.0
2017-Mar-21 09:33N 37°54' E 023°05'0 0.5
2017-Mar-21 08:33N 37°54' E 023°05'1010.5
2017-Mar-21 07:33N 37°56' E 023°18'9 9.0
2017-Mar-21 06:33N 38°01' E 023°28'3 2.8
2017-Mar-21 05:31N 38°02' E 023°32'0 0.0
2017-Mar-21 04:31N 38°02' E 023°32'0 0.0
2017-Mar-21 03:31N 38°02' E 023°32'0 0.0
2017-Mar-21 02:31N 38°02' E 023°32'0 0.0
2017-Mar-21 01:31N 38°02' E 023°32'0 0.0
2017-Mar-21 00:31N 38°02' E 023°32'0 0.0
2017-Mar-20 23:31N 38°02' E 023°32'0 0.0
2017-Mar-20 22:31N 38°02' E 023°32'0 0.0
2017-Mar-20 21:31N 38°02' E 023°32'0 0.0
2017-Mar-20 20:31N 38°02' E 023°32'0 0.1
2017-Mar-20 19:31N 38°02' E 023°32'0 0.0
2017-Mar-20 18:31N 38°02' E 023°32'0 0.0
2017-Mar-20 17:31N 38°02' E 023°32'0 0.0
2017-Mar-20 16:31N 38°02' E 023°32'0 0.0
2017-Mar-20 15:31N 38°02' E 023°32'0 0.0
2017-Mar-20 14:31N 38°02' E 023°32'0 0.0
2017-Mar-20 13:31N 38°02' E 023°32'0 0.0
2017-Mar-20 12:31N 38°02' E 023°32'0 0.0
2017-Mar-20 11:31N 38°02' E 023°32'0 0.0
2017-Mar-20 10:28N 38°02' E 023°32'0 0.0
2017-Mar-20 09:31N 38°02' E 023°32'0 0.0
2017-Mar-20 08:31N 38°02' E 023°32'0 0.0
2017-Mar-20 07:33N 38°02' E 023°32'0 0.0
2017-Mar-20 06:31N 38°02' E 023°32'0 0.0
2017-Mar-20 05:33N 38°02' E 023°32'0 0.0
2017-Mar-20 04:31N 38°02' E 023°32'0 0.0
2017-Mar-20 03:31N 38°02' E 023°32'0 0.0
2017-Mar-20 02:31N 38°02' E 023°32'0 0.0
2017-Mar-20 01:31N 38°02' E 023°32'0 0.0
2017-Mar-20 00:31N 38°02' E 023°32'0 0.0
2017-Mar-19 23:31N 38°02' E 023°32'0 0.0
2017-Mar-19 22:31N 38°02' E 023°32'0 0.0
2017-Mar-19 21:28N 38°02' E 023°32'0 0.0
2017-Mar-19 20:31N 38°02' E 023°32'0 0.0
2017-Mar-19 19:31N 38°02' E 023°32'0 0.0
2017-Mar-19 18:31N 38°02' E 023°32'0 0.1
2017-Mar-19 17:31N 38°02' E 023°32'0 0.0
2017-Mar-19 16:31N 38°02' E 023°32'0 0.0
2017-Mar-19 15:31N 38°02' E 023°32'0 0.0
2017-Mar-19 14:31N 38°02' E 023°32'0 0.0
2017-Mar-19 13:31N 38°02' E 023°32'0 0.0
2017-Mar-19 12:31N 38°02' E 023°32'0 0.0
2017-Mar-19 11:31N 38°02' E 023°32'0 0.0
2017-Mar-19 10:31N 38°02' E 023°32'0 0.0
2017-Mar-19 09:31N 38°02' E 023°32'0 0.0
2017-Mar-19 08:31N 38°02' E 023°32'0 0.1
2017-Mar-19 07:31N 38°02' E 023°32'0 0.1
2017-Mar-19 06:31N 38°02' E 023°32'0 0.1
2017-Mar-19 05:31N 38°02' E 023°32'0 0.1
2017-Mar-19 04:31N 38°02' E 023°32'0 0.0
2017-Mar-19 03:28N 38°02' E 023°32'0 0.0
2017-Mar-19 02:31N 38°02' E 023°32'0 0.0
2017-Mar-19 01:31N 38°02' E 023°32'0 0.0
2017-Mar-19 00:31N 38°02' E 023°32'0 0.0
2017-Mar-18 23:31N 38°02' E 023°32'0 0.0
2017-Mar-18 22:31N 38°02' E 023°32'0 0.0
2017-Mar-18 21:31N 38°02' E 023°32'0 0.0
2017-Mar-18 20:31N 38°02' E 023°32'0 0.0
2017-Mar-18 19:31N 38°02' E 023°32'0 0.1
2017-Mar-18 18:31N 38°02' E 023°32'0 0.0
2017-Mar-18 17:31N 38°02' E 023°32'0 0.0
2017-Mar-18 16:31N 38°02' E 023°32'0 0.0
2017-Mar-18 15:31N 38°02' E 023°32'0 0.0
2017-Mar-18 14:31N 38°02' E 023°32'0 0.0
2017-Mar-18 13:31N 38°02' E 023°32'0 0.0
2017-Mar-18 12:31N 38°02' E 023°32'0 0.0
2017-Mar-18 11:31N 38°02' E 023°32'0 0.0
2017-Mar-18 10:31N 38°02' E 023°32'0 0.1
2017-Mar-18 09:31N 38°02' E 023°32'0 0.0
2017-Mar-18 08:31N 38°02' E 023°32'0 0.0
2017-Mar-18 07:31N 38°02' E 023°32'0 0.0
2017-Mar-18 06:31N 38°02' E 023°32'0 0.0
2017-Mar-18 05:31N 38°01' E 023°32'0 0.0
2017-Mar-18 04:31N 38°01' E 023°32'0 0.0
2017-Mar-18 03:28N 38°01' E 023°32'0 0.0
2017-Mar-18 02:31N 38°01' E 023°32'0 0.0
2017-Mar-18 01:31N 38°01' E 023°32'0 0.0
2017-Mar-18 00:31N 38°01' E 023°32'0 0.0
2017-Mar-17 23:31N 38°01' E 023°32'0 0.0
2017-Mar-17 22:31N 38°02' E 023°32'0 0.0
2017-Mar-17 21:31N 38°02' E 023°32'0 0.0
2017-Mar-17 20:31N 38°02' E 023°32'0 0.0
2017-Mar-17 19:31N 38°02' E 023°32'0 0.0
2017-Mar-17 18:31N 38°02' E 023°32'0 0.0
2017-Mar-17 17:31N 38°02' E 023°32'0 0.0
2017-Mar-17 16:31N 38°02' E 023°32'0 0.0
2017-Mar-17 15:31N 38°01' E 023°32'0 0.0
2017-Mar-17 14:31N 38°01' E 023°32'0 0.0
2017-Mar-17 13:31N 38°01' E 023°32'0 0.0
2017-Mar-17 12:31N 38°01' E 023°32'0 0.0
2017-Mar-17 11:25N 38°01' E 023°32'0 0.0
2017-Mar-17 10:31N 38°01' E 023°32'0 0.1
2017-Mar-17 09:34N 38°02' E 023°32'0 0.0
2017-Mar-17 08:33N 38°02' E 023°32'0 0.0
2017-Mar-17 07:33N 38°02' E 023°32'0 0.0
2017-Mar-17 06:33N 38°02' E 023°32'3 3.5
2017-Mar-17 05:33N 37°58' E 023°33'7 7.0
2017-Mar-17 04:33N 37°52' E 023°38'1110.7
2017-Mar-17 03:33N 37°43' E 023°44'  
2017-Mar-14 14:32N 39°32' E 024°05'  

Dump ship's entire track history